createdAt,value
2022-08-30T00:02:10.851Z,96427.94
2022-08-30T00:04:40.438Z,96430.81
2022-08-30T00:07:08.586Z,96424.63
2022-08-30T00:09:36.747Z,96421.66
2022-08-30T00:12:05.570Z,96439.63
2022-08-30T00:14:33.761Z,96437.47
2022-08-30T00:17:01.858Z,96431.78
2022-08-30T00:19:30.012Z,96436.16
2022-08-30T00:21:59.568Z,96423.00
2022-08-30T00:24:27.875Z,96428.31
2022-08-30T00:26:56.059Z,96425.34
2022-08-30T00:29:24.220Z,96437.91
2022-08-30T00:31:52.368Z,96434.81
2022-08-30T00:34:20.458Z,96431.44
2022-08-30T00:36:48.646Z,96433.41
2022-08-30T00:39:18.404Z,96442.00
2022-08-30T00:41:46.858Z,96438.28
2022-08-30T00:44:14.966Z,96438.44
2022-08-30T00:46:43.105Z,96438.28
2022-08-30T00:49:12.913Z,96436.97
2022-08-30T00:51:42.480Z,96440.50
2022-08-30T00:54:10.726Z,96447.69
2022-08-30T00:56:40.241Z,96443.03
2022-08-30T00:59:09.657Z,96433.38
2022-08-30T01:01:37.936Z,96427.22
2022-08-30T01:04:08.763Z,96431.94
2022-08-30T01:06:37.511Z,96432.91
2022-08-30T01:09:06.041Z,96423.94
2022-08-30T01:11:35.522Z,96425.13
2022-08-30T01:14:06.055Z,96415.75
2022-08-30T01:16:35.751Z,96421.31
2022-08-30T01:19:04.821Z,96427.13
2022-08-30T01:21:38.179Z,96427.13
2022-08-30T01:24:08.584Z,96427.56
2022-08-30T01:26:40.965Z,96425.00
2022-08-30T01:29:12.361Z,96423.38
2022-08-30T01:31:40.495Z,96419.59
2022-08-30T01:34:09.341Z,96420.47
2022-08-30T01:36:44.961Z,96427.56
2022-08-30T01:39:17.064Z,96424.63
2022-08-30T01:41:45.323Z,96427.56
2022-08-30T01:44:14.427Z,96429.50
2022-08-30T01:46:46.172Z,96425.97
2022-08-30T01:49:16.606Z,96432.22
2022-08-30T01:51:45.073Z,96426.16
2022-08-30T01:54:14.832Z,96423.56
2022-08-30T01:56:43.038Z,96426.16
2022-08-30T01:59:11.210Z,96420.72
2022-08-30T02:01:40.098Z,96427.13
2022-08-30T02:04:10.072Z,96430.69
2022-08-30T02:06:40.172Z,96423.19
2022-08-30T02:09:08.665Z,96422.56
2022-08-30T02:11:38.484Z,96425.41
2022-08-30T02:14:07.380Z,96389.22
2022-08-30T02:16:35.600Z,96424.25
2022-08-30T02:19:03.901Z,96380.72
2022-08-30T02:21:32.081Z,96419.59
2022-08-30T02:24:00.343Z,96421.28
2022-08-30T02:26:28.540Z,96409.38
2022-08-30T02:29:00.160Z,96422.00
2022-08-30T02:31:28.339Z,96420.69
2022-08-30T02:33:56.543Z,96416.97
2022-08-30T02:36:25.258Z,96405.22
2022-08-30T02:38:53.475Z,96416.38
2022-08-30T02:41:23.595Z,96427.53
2022-08-30T02:43:52.448Z,96420.88
2022-08-30T02:46:22.086Z,96425.38
2022-08-30T02:48:50.330Z,96422.53
2022-08-30T02:51:18.583Z,96428.69
2022-08-30T02:53:47.041Z,96427.78
2022-08-30T02:56:15.978Z,96431.81
2022-08-30T02:58:45.086Z,96425.88
2022-08-30T03:01:15.170Z,96426.94
2022-08-30T03:03:45.771Z,96422.91
2022-08-30T03:06:14.048Z,96420.44
2022-08-30T03:08:42.474Z,96394.41
2022-08-30T03:11:10.584Z,96419.94
2022-08-30T03:13:38.760Z,96422.09
2022-08-30T03:16:06.920Z,96418.84
2022-08-30T03:18:35.071Z,96416.69
2022-08-30T03:21:06.813Z,96425.09
2022-08-30T03:23:34.917Z,96412.91
2022-08-30T03:26:03.036Z,96429.44
2022-08-30T03:28:31.164Z,96422.00
2022-08-30T03:30:59.296Z,96421.47
2022-08-30T03:33:27.593Z,96422.72
2022-08-30T03:35:55.760Z,96418.91
2022-08-30T03:38:26.072Z,96389.06
2022-08-30T03:40:54.265Z,96424.63
2022-08-30T03:43:22.540Z,96420.28
2022-08-30T03:45:51.990Z,96406.59
2022-08-30T03:48:20.224Z,96414.44
2022-08-30T03:50:48.389Z,96409.56
2022-08-30T03:53:16.568Z,96413.13
2022-08-30T03:55:46.194Z,96418.28
2022-08-30T03:58:15.178Z,96408.50
2022-08-30T04:00:47.549Z,96416.25
2022-08-30T04:03:16.600Z,96429.28
2022-08-30T04:05:45.580Z,96376.19
2022-08-30T04:08:13.768Z,96417.22
2022-08-30T04:10:41.883Z,96290.06
2022-08-30T04:13:11.434Z,96415.31
2022-08-30T04:15:39.973Z,96413.81
2022-08-30T04:18:08.258Z,96425.63
2022-08-30T04:20:36.526Z,96297.81
2022-08-30T04:23:07.161Z,96425.34
2022-08-30T04:25:36.252Z,96431.47
2022-08-30T04:28:05.491Z,96416.41
2022-08-30T04:30:35.279Z,96435.69
2022-08-30T04:33:03.342Z,96430.66
2022-08-30T04:35:31.412Z,96437.28
2022-08-30T04:37:59.867Z,96435.41
2022-08-30T04:40:28.147Z,96440.56
2022-08-30T04:42:56.579Z,96442.78
2022-08-30T04:45:26.565Z,96446.69
2022-08-30T04:47:57.232Z,96450.63
2022-08-30T04:50:25.670Z,96453.06
2022-08-30T04:52:54.202Z,96450.63
2022-08-30T04:55:24.760Z,96442.59
2022-08-30T04:57:53.307Z,96435.81
2022-08-30T05:00:22.016Z,96446.53
2022-08-30T05:02:51.157Z,96450.50
2022-08-30T05:05:38.570Z,96431.34
2022-08-30T05:08:07.369Z,96447.22
2022-08-30T05:10:35.882Z,96450.22
2022-08-30T05:13:03.972Z,96463.50
2022-08-30T05:15:32.093Z,96468.53
2022-08-30T05:18:00.362Z,96461.06
2022-08-30T05:20:30.244Z,96484.03
2022-08-30T05:22:58.297Z,96484.03
2022-08-30T05:25:27.791Z,96476.69
2022-08-30T05:27:56.132Z,96474.47
2022-08-30T05:30:25.607Z,96471.06
2022-08-30T05:32:54.485Z,96472.25
2022-08-30T05:35:25.729Z,96477.00
2022-08-30T05:37:56.242Z,96476.03
2022-08-30T05:40:24.865Z,96480.31
2022-08-30T05:42:53.125Z,96486.03
2022-08-30T05:45:21.682Z,96463.19
2022-08-30T05:47:50.337Z,96482.59
2022-08-30T05:50:18.505Z,96466.94
2022-08-30T05:52:46.686Z,96485.09
2022-08-30T05:55:16.477Z,96476.47
2022-08-30T05:57:44.585Z,96479.16
2022-08-30T06:00:19.394Z,96493.53
2022-08-30T06:02:48.133Z,96484.88
2022-08-30T06:05:17.214Z,96490.69
2022-08-30T06:07:45.477Z,96496.59
2022-08-30T06:10:15.258Z,96491.19
2022-08-30T06:12:45.509Z,96494.81
2022-08-30T06:15:13.852Z,96491.47
2022-08-30T06:17:41.944Z,96499.81
2022-08-30T06:20:11.921Z,96500.53
2022-08-30T06:22:40.102Z,96477.69
2022-08-30T06:25:09.642Z,96494.03
2022-08-30T06:27:39.554Z,96500.91
2022-08-30T06:30:11.045Z,96488.00
2022-08-30T06:32:39.612Z,96493.59
2022-08-30T06:35:08.992Z,96490.72
2022-08-30T06:37:37.577Z,96504.41
2022-08-30T06:40:06.827Z,96455.44
2022-08-30T06:42:35.122Z,96494.63
2022-08-30T06:45:11.113Z,96502.53
2022-08-30T06:47:40.072Z,96493.63
2022-08-30T06:50:11.777Z,96490.91
2022-08-30T06:52:42.452Z,96494.50
2022-08-30T06:55:11.859Z,96504.94
2022-08-30T06:57:40.330Z,96502.00
2022-08-30T07:00:12.587Z,96513.53
2022-08-30T07:02:41.492Z,96506.25
2022-08-30T07:05:15.329Z,96507.09
2022-08-30T07:07:46.213Z,96515.03
2022-08-30T07:10:14.908Z,96488.56
2022-08-30T07:12:43.057Z,96504.94
2022-08-30T07:15:13.182Z,96509.94
2022-08-30T07:17:58.723Z,96502.91
2022-08-30T07:20:26.864Z,96498.66
2022-08-30T07:22:54.964Z,96508.69
2022-08-30T07:25:23.152Z,96508.38
2022-08-30T07:27:52.059Z,96511.72
2022-08-30T07:30:21.782Z,96505.44
2022-08-30T07:32:50.147Z,96506.56
2022-08-30T07:35:18.362Z,96505.03
2022-08-30T07:37:46.716Z,96510.03
2022-08-30T07:40:15.127Z,96501.06
2022-08-30T07:42:43.344Z,96514.31
2022-08-30T07:45:12.650Z,96514.13
2022-08-30T07:47:42.311Z,96515.00
2022-08-30T07:50:10.528Z,96508.44
2022-08-30T07:52:39.074Z,96509.03
2022-08-30T07:55:08.557Z,96516.44
2022-08-30T07:57:36.681Z,96514.75
2022-08-30T08:00:06.532Z,96516.06
2022-08-30T08:02:37.093Z,96511.78
2022-08-30T08:05:09.661Z,96509.00
2022-08-30T08:07:39.274Z,96515.97
2022-08-30T08:10:09.152Z,96512.91
2022-08-30T08:12:38.251Z,96509.06
2022-08-30T08:15:08.955Z,96507.91
2022-08-30T08:17:37.252Z,96498.16
2022-08-30T08:20:07.945Z,96513.00
2022-08-30T08:22:39.874Z,96516.75
2022-08-30T08:25:09.380Z,96481.91
2022-08-30T08:27:37.590Z,96502.91
2022-08-30T08:30:06.719Z,96480.81
2022-08-30T08:32:35.225Z,96498.03
2022-08-30T08:35:05.314Z,96507.34
2022-08-30T08:37:34.873Z,96505.88
2022-08-30T08:40:03.076Z,96510.81
2022-08-30T08:42:38.379Z,96508.56
2022-08-30T08:45:11.513Z,96516.16
2022-08-30T08:47:42.397Z,96504.72
2022-08-30T08:50:17.308Z,96505.25
2022-08-30T08:53:13.304Z,96499.44
2022-08-30T08:55:49.358Z,96507.84
2022-08-30T08:58:24.700Z,96500.31
2022-08-30T09:00:53.360Z,96494.88
2022-08-30T09:03:23.187Z,96467.22
2022-08-30T09:05:52.420Z,96498.53
2022-08-30T09:08:24.386Z,96497.56
2022-08-30T09:10:57.210Z,96483.53
2022-08-30T09:13:27.958Z,96486.69
2022-08-30T09:15:59.396Z,96488.09
2022-08-30T09:18:47.465Z,96487.34
2022-08-30T09:21:23.406Z,96485.28
2022-08-30T09:24:01.300Z,96480.88
2022-08-30T09:26:31.197Z,96482.81
2022-08-30T09:29:01.095Z,96477.91
2022-08-30T09:31:31.058Z,96474.69
2022-08-30T09:34:03.619Z,96468.91
2022-08-30T09:36:35.454Z,96445.66
2022-08-30T09:39:07.667Z,96471.53
2022-08-30T09:41:40.355Z,96453.22
2022-08-30T09:44:12.040Z,96465.59
2022-08-30T09:46:45.584Z,96455.50
2022-08-30T09:49:29.707Z,96445.59
2022-08-30T09:52:18.787Z,96450.19
2022-08-30T09:54:59.404Z,96444.47
2022-08-30T09:57:35.670Z,96438.84
2022-08-30T10:00:17.353Z,96446.75
2022-08-30T10:03:03.168Z,96451.50
2022-08-30T10:05:38.396Z,96446.69
2022-08-30T10:08:15.892Z,96441.22
2022-08-30T10:10:52.777Z,96439.00
2022-08-30T10:13:47.094Z,96438.00
2022-08-30T10:16:23.982Z,96441.25
2022-08-30T10:18:55.831Z,96441.34
2022-08-30T10:21:28.056Z,96439.28
2022-08-30T10:23:59.845Z,96443.69
2022-08-30T10:26:32.921Z,96443.09
2022-08-30T10:29:03.748Z,96429.16
2022-08-30T10:31:38.647Z,96429.75
2022-08-30T10:34:10.210Z,96424.47
2022-08-30T10:36:44.103Z,96424.00
2022-08-30T10:39:19.776Z,96422.91
2022-08-30T10:41:51.865Z,96409.03
2022-08-30T10:44:25.210Z,96419.78
2022-08-30T10:47:02.735Z,96425.53
2022-08-30T10:49:33.808Z,96413.84
2022-08-30T10:52:10.177Z,96413.66
2022-08-30T10:54:42.959Z,96413.88
2022-08-30T10:57:12.975Z,96403.34
2022-08-30T10:59:46.576Z,96412.72
2022-08-30T11:03:03.115Z,96416.69
2022-08-30T11:05:47.726Z,96404.94
2022-08-30T11:08:30.126Z,96405.00
2022-08-30T11:11:03.994Z,96402.81
2022-08-30T11:13:36.971Z,96377.22
2022-08-30T11:16:07.522Z,96397.28
2022-08-30T11:18:43.966Z,96356.72
2022-08-30T11:21:27.783Z,96392.28
2022-08-30T11:24:01.030Z,96395.63
2022-08-30T11:26:58.483Z,96387.50
2022-08-30T11:29:40.107Z,96388.34
2022-08-30T11:32:27.897Z,96388.03
2022-08-30T11:35:00.909Z,96389.66
2022-08-30T11:37:39.940Z,96357.13
2022-08-30T11:40:14.247Z,96396.88
2022-08-30T11:42:46.787Z,96393.28
2022-08-30T11:45:54.830Z,96395.94
2022-08-30T11:48:53.874Z,96393.31
2022-08-30T11:52:14.850Z,96400.63
2022-08-30T11:54:53.049Z,96404.31
2022-08-30T11:57:30.525Z,96393.56
2022-08-30T12:00:07.550Z,96396.75
2022-08-30T12:02:48.225Z,96398.66
2022-08-30T12:05:55.177Z,96400.84
2022-08-30T12:08:56.467Z,96399.22
2022-08-30T12:11:56.388Z,96399.19
2022-08-30T12:14:47.823Z,96352.97
2022-08-30T12:17:52.366Z,96384.69
2022-08-30T12:20:32.641Z,96379.81
2022-08-30T12:23:16.817Z,96372.94
2022-08-30T12:25:46.770Z,96373.16
2022-08-30T12:28:22.894Z,96378.50
2022-08-30T12:30:51.377Z,96369.41
2022-08-30T12:33:29.168Z,96369.78
2022-08-30T12:35:59.803Z,96361.00
2022-08-30T12:38:29.803Z,96360.66
2022-08-30T12:41:05.625Z,96356.97
2022-08-30T12:43:40.267Z,96349.22
2022-08-30T12:46:15.104Z,96353.47
2022-08-30T12:48:44.546Z,96358.47
2022-08-30T12:51:28.900Z,96350.81
2022-08-30T12:54:05.459Z,96348.06
2022-08-30T12:56:51.818Z,96348.56
2022-08-30T12:59:52.837Z,96334.56
2022-08-30T13:02:24.261Z,96337.88
2022-08-30T13:04:55.512Z,96339.19
2022-08-30T13:07:33.553Z,96341.16
2022-08-30T13:10:06.793Z,96339.13
2022-08-30T13:12:38.711Z,96336.78
2022-08-30T13:15:13.709Z,96341.94
2022-08-30T13:17:42.672Z,96333.53
2022-08-30T13:20:23.736Z,96336.91
2022-08-30T13:23:10.148Z,96342.72
2022-08-30T13:25:40.205Z,96344.81
2022-08-30T13:28:09.475Z,96336.44
2022-08-30T13:30:38.831Z,96335.38
2022-08-30T13:33:07.092Z,96336.09
2022-08-30T13:35:35.440Z,96299.56
2022-08-30T13:38:04.348Z,96318.53
2022-08-30T13:40:34.048Z,96305.91
2022-08-30T13:43:02.454Z,96317.28
2022-08-30T13:45:46.853Z,96319.53
2022-08-30T13:48:17.527Z,96313.56
2022-08-30T13:50:53.762Z,96306.19
2022-08-30T13:56:14.048Z,96302.59
2022-08-30T13:58:42.636Z,96301.53
2022-08-30T14:01:10.936Z,96295.44
2022-08-30T14:04:13.317Z,96292.09
2022-08-30T14:06:34.025Z,96299.03
2022-08-30T14:09:04.624Z,96284.19
2022-08-30T14:11:36.094Z,96280.53
2022-08-30T14:14:36.488Z,96282.47
2022-08-30T14:16:54.433Z,96257.91
2022-08-30T14:19:23.019Z,96280.97
2022-08-30T14:21:51.360Z,96274.72
2022-08-30T14:24:21.529Z,96267.66
2022-08-30T14:26:53.617Z,96272.06
2022-08-30T14:29:24.834Z,96261.53
2022-08-30T14:31:53.543Z,96264.28
2022-08-30T14:34:23.129Z,96261.88
2022-08-30T14:36:51.500Z,96265.22
2022-08-30T14:39:21.318Z,96261.78
2022-08-30T14:41:53.727Z,96254.88
2022-08-30T14:44:24.139Z,96235.31
2022-08-30T14:46:52.418Z,96252.19
2022-08-30T14:49:22.230Z,96269.47
2022-08-30T14:51:51.816Z,96261.38
2022-08-30T14:54:23.175Z,96262.00
2022-08-30T14:56:55.764Z,96265.03
2022-08-30T14:59:25.385Z,96251.00
2022-08-30T15:01:53.806Z,96198.06
2022-08-30T15:04:22.146Z,96246.31
2022-08-30T15:06:52.884Z,96247.38
2022-08-30T15:09:23.989Z,96252.13
2022-08-30T15:11:58.623Z,96247.88
2022-08-30T15:14:28.386Z,96250.16
2022-08-30T15:16:58.656Z,96251.00
2022-08-30T15:19:27.770Z,96252.88
2022-08-30T15:22:00.646Z,96251.59
2022-08-30T15:24:30.110Z,96250.09
2022-08-30T15:27:00.783Z,96241.34
2022-08-30T15:29:29.894Z,96234.00
2022-08-30T15:32:00.680Z,96229.84
2022-08-30T15:34:29.050Z,96237.53
2022-08-30T15:36:57.866Z,96231.38
2022-08-30T15:39:26.058Z,96229.41
2022-08-30T15:42:00.323Z,96227.22
2022-08-30T15:44:31.442Z,96228.50
2022-08-30T15:47:00.004Z,96223.44
2022-08-30T15:49:28.958Z,96225.69
2022-08-30T15:52:02.613Z,96210.44
2022-08-30T15:54:32.470Z,96222.72
2022-08-30T15:57:02.040Z,96223.75
2022-08-30T15:59:35.941Z,96224.09
2022-08-30T16:02:04.167Z,96219.84
2022-08-30T16:04:34.719Z,96225.94
2022-08-30T16:07:04.265Z,96218.34
2022-08-30T16:09:33.831Z,96230.06
2022-08-30T16:12:04.664Z,96227.31
2022-08-30T16:14:36.189Z,96228.25
2022-08-30T16:17:05.554Z,96220.28
2022-08-30T16:19:33.703Z,96218.81
2022-08-30T16:22:02.205Z,96225.50
2022-08-30T16:24:30.488Z,96204.50
2022-08-30T16:26:58.722Z,96223.38
2022-08-30T16:29:28.881Z,96218.69
2022-08-30T16:31:59.306Z,96215.25
2022-08-30T16:34:28.358Z,96220.59
2022-08-30T16:36:57.673Z,96213.69
2022-08-30T16:39:25.859Z,96211.81
2022-08-30T16:41:54.007Z,96209.25
2022-08-30T16:44:22.259Z,96214.28
2022-08-30T16:46:54.889Z,96224.28
2022-08-30T16:49:25.473Z,96221.91
2022-08-30T16:51:53.968Z,96221.03
2022-08-30T16:54:22.848Z,96224.66
2022-08-30T16:56:51.247Z,96228.91
2022-08-30T16:59:19.691Z,96222.50
2022-08-30T17:01:48.358Z,96221.25
2022-08-30T17:04:19.735Z,96211.44
2022-08-30T17:06:52.297Z,96201.03
2022-08-30T17:09:33.863Z,96205.91
2022-08-30T17:12:15.864Z,96217.53
2022-08-30T17:14:57.555Z,96207.19
2022-08-30T17:17:43.332Z,96221.03
2022-08-30T17:20:27.886Z,96219.91
2022-08-30T17:23:12.865Z,96214.75
2022-08-30T17:25:55.885Z,96225.72
2022-08-30T17:28:38.189Z,96234.41
2022-08-30T17:31:21.912Z,96226.19
2022-08-30T17:34:05.914Z,96208.06
2022-08-30T17:36:47.884Z,96241.41
2022-08-30T17:39:34.875Z,96247.59
2022-08-30T17:42:20.876Z,96244.84
2022-08-30T17:45:06.859Z,96243.44
2022-08-30T17:47:53.884Z,96248.06
2022-08-30T17:50:37.884Z,96260.53
2022-08-30T17:53:21.882Z,96261.22
2022-08-30T17:56:10.886Z,96255.56
2022-08-30T17:58:57.889Z,96252.69
2022-08-30T18:01:42.209Z,96251.06
2022-08-30T18:04:27.919Z,96254.03
2022-08-30T18:07:12.928Z,96269.81
2022-08-30T18:10:00.900Z,96268.13
2022-08-30T18:12:47.886Z,96242.91
2022-08-30T18:15:35.894Z,96281.53
2022-08-30T18:18:24.259Z,96280.47
2022-08-30T18:21:11.890Z,96279.88
2022-08-30T18:23:55.891Z,96272.97
2022-08-30T18:26:38.903Z,96273.31
2022-08-30T18:29:30.515Z,96276.53
2022-08-30T18:32:16.902Z,96285.34
2022-08-30T18:34:56.916Z,96253.31
2022-08-30T18:37:42.910Z,96289.53
2022-08-30T18:40:26.945Z,96282.63
2022-08-30T18:43:10.937Z,96285.72
2022-08-30T18:45:49.982Z,96284.34
2022-08-30T18:48:29.004Z,96288.44
2022-08-30T18:51:17.964Z,96295.00
2022-08-30T18:54:07.970Z,96288.50
2022-08-30T18:56:51.997Z,96293.22
2022-08-30T18:59:37.973Z,96299.94
2022-08-30T19:02:27.671Z,96282.41
2022-08-30T19:05:13.974Z,96307.13
2022-08-30T19:07:57.975Z,96305.31
2022-08-30T19:10:43.985Z,96306.34
2022-08-30T19:13:23.995Z,96308.00
2022-08-30T19:16:12.108Z,96309.94
2022-08-30T19:18:59.984Z,96274.94
2022-08-30T19:21:45.984Z,96308.16
2022-08-30T19:24:29.996Z,96302.31
2022-08-30T19:27:16.003Z,96310.91
2022-08-30T19:30:03.993Z,96284.97
2022-08-30T19:32:49.993Z,96310.94
2022-08-30T19:35:36.006Z,96323.91
2022-08-30T19:38:18.990Z,96314.81
2022-08-30T19:41:06.993Z,96275.44
2022-08-30T19:43:52.990Z,96315.97
2022-08-30T19:46:36.987Z,96322.28
2022-08-30T19:49:22.993Z,96320.34
2022-08-30T19:52:10.004Z,96318.59
2022-08-30T19:54:55.991Z,96318.59
2022-08-30T19:57:40.008Z,96322.13
2022-08-30T20:00:26.007Z,96321.00
2022-08-30T20:03:14.060Z,96330.25
2022-08-30T20:06:02.005Z,96334.66
2022-08-30T20:08:50.993Z,96322.44
2022-08-30T20:11:44.052Z,96323.25
2022-08-30T20:14:28.323Z,96326.22
2022-08-30T20:17:12.073Z,96286.91
2022-08-30T20:20:04.993Z,96315.34
2022-08-30T20:22:50.866Z,96325.03
2022-08-30T20:25:56.714Z,96321.78
2022-08-30T20:28:39.002Z,96322.28
2022-08-30T20:31:24.132Z,96324.38
2022-08-30T20:34:10.997Z,96324.19
2022-08-30T20:36:50.019Z,96323.06
2022-08-30T20:39:26.471Z,96318.97
2022-08-30T20:42:11.042Z,96311.69
2022-08-30T20:44:56.049Z,96318.66
2022-08-30T20:47:43.111Z,96333.06
2022-08-30T20:50:28.043Z,96329.63
2022-08-30T20:53:13.041Z,96321.03
2022-08-30T20:55:59.050Z,96326.03
2022-08-30T20:58:47.063Z,96329.44
2022-08-30T21:01:32.110Z,96322.00
2022-08-30T21:04:17.065Z,96321.66
2022-08-30T21:07:02.071Z,96314.16
2022-08-30T21:09:47.064Z,96330.41
2022-08-30T21:12:33.070Z,96325.53
2022-08-30T21:15:37.217Z,96331.34
2022-08-30T21:18:24.069Z,96331.63
2022-08-30T21:21:18.093Z,96328.84
2022-08-30T21:24:04.087Z,96323.13
2022-08-30T21:26:48.096Z,96326.13
2022-08-30T21:29:34.096Z,96322.06
2022-08-30T21:32:21.084Z,96309.38
2022-08-30T21:35:20.085Z,96316.97
2022-08-30T21:38:04.087Z,96277.84
2022-08-30T21:40:50.097Z,96315.88
2022-08-30T21:43:34.087Z,96320.75
2022-08-30T21:46:20.227Z,96311.19
2022-08-30T21:49:07.092Z,96285.47
2022-08-30T21:51:54.097Z,96315.88
2022-08-30T21:54:42.093Z,96313.72
2022-08-30T21:57:28.098Z,96288.06
2022-08-30T22:00:12.093Z,96292.50
2022-08-30T22:02:58.144Z,96315.56
2022-08-30T22:05:46.120Z,96307.66
2022-08-30T22:08:36.100Z,96313.66
2022-08-30T22:11:20.095Z,96296.78
2022-08-30T22:14:07.084Z,96293.03
2022-08-30T22:16:52.148Z,96296.59
2022-08-30T22:19:42.091Z,96288.00
2022-08-30T22:22:31.090Z,96287.41
2022-08-30T22:25:17.099Z,96284.97
2022-08-30T22:28:01.090Z,96299.03
2022-08-30T22:30:50.097Z,96261.97
2022-08-30T22:33:34.101Z,96288.16
2022-08-30T22:36:20.102Z,96286.81
2022-08-30T22:39:08.093Z,96294.38
2022-08-30T22:41:52.625Z,96282.88
2022-08-30T22:44:35.095Z,96291.44
2022-08-30T22:47:21.103Z,96288.06
2022-08-30T22:50:05.094Z,96282.22
2022-08-30T22:52:51.100Z,96279.13
2022-08-30T22:55:39.130Z,96279.44
2022-08-30T22:58:25.110Z,96291.56
2022-08-30T23:01:09.128Z,96287.63
2022-08-30T23:03:55.097Z,96276.47
2022-08-30T23:06:39.099Z,96271.91
2022-08-30T23:09:25.107Z,96269.97
2022-08-30T23:12:12.104Z,96276.78
2022-08-30T23:14:58.103Z,96262.66
2022-08-30T23:17:42.105Z,96265.13
2022-08-30T23:20:28.101Z,96270.41
2022-08-30T23:23:07.272Z,96276.66
2022-08-30T23:26:06.112Z,96259.25
2022-08-30T23:29:06.108Z,96265.19
2022-08-30T23:32:05.151Z,96261.84
2022-08-30T23:35:03.125Z,96270.16
2022-08-30T23:38:02.118Z,96258.44
2022-08-30T23:40:59.105Z,96262.66
2022-08-30T23:43:58.116Z,96266.34
2022-08-30T23:46:58.117Z,96228.50
2022-08-30T23:49:57.109Z,96256.09
2022-08-30T23:52:54.140Z,96260.44
2022-08-30T23:55:53.114Z,96254.63
2022-08-30T23:58:51.104Z,96252.03
